createdAt,value
2018-07-09T00:01:39.849Z,7.65
2018-07-09T00:04:09.008Z,8.18
2018-07-09T00:06:38.285Z,8.08
2018-07-09T00:09:07.582Z,8.23
2018-07-09T00:11:37.071Z,7.95
2018-07-09T00:14:06.093Z,8.95
2018-07-09T00:16:34.839Z,9.93
2018-07-09T00:19:04.008Z,9.98
2018-07-09T00:21:33.076Z,9.68
2018-07-09T00:24:02.063Z,10.05
2018-07-09T00:26:31.515Z,9.60
2018-07-09T00:29:00.531Z,9.63
2018-07-09T00:31:29.536Z,9.80
2018-07-09T00:33:58.677Z,10.03
2018-07-09T00:36:27.719Z,9.85
2018-07-09T00:38:57.119Z,10.15
2018-07-09T00:41:26.650Z,9.75
2018-07-09T00:43:55.591Z,10.82
2018-07-09T00:46:24.839Z,10.45
2018-07-09T00:48:53.968Z,11.55
2018-07-09T00:51:22.667Z,11.22
2018-07-09T00:53:51.686Z,11.28
2018-07-09T00:56:21.173Z,12.00
2018-07-09T00:58:50.250Z,11.80
2018-07-09T01:01:19.763Z,11.50
2018-07-09T01:03:49.302Z,11.95
2018-07-09T01:06:18.571Z,11.43
2018-07-09T01:08:47.487Z,12.28
2018-07-09T01:11:27.650Z,12.00
2018-07-09T01:13:56.730Z,11.95
2018-07-09T01:16:25.603Z,12.33
2018-07-09T01:18:55.045Z,11.93
2018-07-09T01:21:24.264Z,11.57
2018-07-09T01:23:53.325Z,11.93
2018-07-09T01:26:22.655Z,11.73
2018-07-09T01:28:52.014Z,11.43
2018-07-09T01:31:21.032Z,11.08
2018-07-09T01:33:50.350Z,10.55
2018-07-09T01:36:19.335Z,11.73
2018-07-09T01:38:48.325Z,11.28
2018-07-09T01:41:17.241Z,10.03
2018-07-09T01:43:46.316Z,10.03
2018-07-09T01:46:15.415Z,10.68
2018-07-09T01:48:44.719Z,10.80
2018-07-09T01:51:13.439Z,10.68
2018-07-09T01:53:42.996Z,10.53
2018-07-09T01:56:12.498Z,11.43
2018-07-09T01:58:41.154Z,12.03
2018-07-09T02:01:10.094Z,11.88
2018-07-09T02:03:39.304Z,12.78
2018-07-09T02:06:08.287Z,12.60
2018-07-09T02:08:37.404Z,12.58
2018-07-09T02:11:06.800Z,12.53
2018-07-09T02:13:36.403Z,12.63
2018-07-09T02:16:05.284Z,13.72
2018-07-09T02:18:34.694Z,15.20
2018-07-09T02:21:04.096Z,14.20
2018-07-09T02:23:32.980Z,14.70
2018-07-09T02:26:03.020Z,13.22
2018-07-09T02:28:32.156Z,13.75
2018-07-09T02:31:01.007Z,13.35
2018-07-09T02:33:30.412Z,13.13
2018-07-09T02:35:59.301Z,12.95
2018-07-09T02:38:28.003Z,13.35
2018-07-09T02:40:57.713Z,13.58
2018-07-09T02:43:26.464Z,13.08
2018-07-09T02:45:55.378Z,13.08
2018-07-09T02:48:24.420Z,13.18
2018-07-09T02:50:53.359Z,12.68
2018-07-09T02:53:22.824Z,13.55
2018-07-09T02:55:52.195Z,11.70
2018-07-09T02:58:21.286Z,12.58
2018-07-09T03:00:50.573Z,11.93
2018-07-09T03:03:19.444Z,12.30
2018-07-09T03:05:48.239Z,12.82
2018-07-09T03:08:17.045Z,12.65
2018-07-09T03:10:46.857Z,12.25
2018-07-09T03:13:15.935Z,12.58
2018-07-09T03:15:44.920Z,12.95
2018-07-09T03:18:14.077Z,13.50
2018-07-09T03:20:43.321Z,12.53
2018-07-09T03:23:12.427Z,12.07
2018-07-09T03:25:41.539Z,11.65
2018-07-09T03:28:11.045Z,11.10
2018-07-09T03:30:39.934Z,12.03
2018-07-09T03:33:09.165Z,12.28
2018-07-09T03:35:37.989Z,13.72
2018-07-09T03:38:07.022Z,15.88
2018-07-09T03:40:36.239Z,13.83
2018-07-09T03:43:04.978Z,13.75
2018-07-09T03:45:34.010Z,14.33
2018-07-09T03:48:03.409Z,14.95
2018-07-09T03:50:32.302Z,14.10
2018-07-09T03:53:05.027Z,13.72
2018-07-09T03:55:36.422Z,13.13
2018-07-09T03:58:05.852Z,15.38
2018-07-09T04:00:35.161Z,14.25
2018-07-09T04:03:04.178Z,16.55
2018-07-09T04:05:33.366Z,20.30
2018-07-09T04:08:02.614Z,33.00
2018-07-09T04:10:31.810Z,38.70
2018-07-09T04:13:02.937Z,36.70
2018-07-09T04:15:31.994Z,34.38
2018-07-09T04:18:01.175Z,33.02
2018-07-09T04:20:30.490Z,24.60
2018-07-09T04:22:59.269Z,19.67
2018-07-09T04:25:28.373Z,16.35
2018-07-09T04:27:57.712Z,14.15
2018-07-09T04:30:26.663Z,13.18
2018-07-09T04:32:55.994Z,13.25
2018-07-09T04:35:25.389Z,11.97
2018-07-09T04:37:54.718Z,12.85
2018-07-09T04:40:24.879Z,12.05
2018-07-09T04:42:55.870Z,11.48
2018-07-09T04:45:25.249Z,13.08
2018-07-09T04:47:54.535Z,12.50
2018-07-09T04:50:24.499Z,12.58
2018-07-09T04:52:53.475Z,12.07
2018-07-09T04:55:22.319Z,11.48
2018-07-09T04:57:51.659Z,11.93
2018-07-09T05:00:20.722Z,11.50
2018-07-09T05:02:49.672Z,10.95
2018-07-09T05:05:19.043Z,12.05
2018-07-09T05:07:47.889Z,11.40
2018-07-09T05:10:17.006Z,11.85
2018-07-09T05:12:46.481Z,12.60
2018-07-09T05:15:15.504Z,11.33
2018-07-09T05:17:44.411Z,11.53
2018-07-09T05:20:13.602Z,11.55
2018-07-09T05:22:42.604Z,10.53
2018-07-09T05:25:11.574Z,11.15
2018-07-09T05:27:41.010Z,11.00
2018-07-09T05:30:11.543Z,10.93
2018-07-09T05:32:41.773Z,11.78
2018-07-09T05:35:10.850Z,10.55
2018-07-09T05:37:40.019Z,11.40
2018-07-09T05:40:09.465Z,12.10
2018-07-09T05:42:39.126Z,9.88
2018-07-09T05:45:08.202Z,11.00
2018-07-09T05:47:37.721Z,10.45
2018-07-09T05:50:07.336Z,10.93
2018-07-09T05:52:36.575Z,10.03
2018-07-09T05:55:05.715Z,10.32
2018-07-09T05:57:35.543Z,9.63
2018-07-09T06:00:04.515Z,10.98
2018-07-09T06:02:34.141Z,11.03
2018-07-09T06:05:04.414Z,10.55
2018-07-09T06:07:33.359Z,8.65
2018-07-09T06:10:03.203Z,10.43
2018-07-09T06:12:32.109Z,8.83
2018-07-09T06:15:01.038Z,10.35
2018-07-09T06:17:30.898Z,8.83
2018-07-09T06:20:00.657Z,10.08
2018-07-09T06:22:29.610Z,10.38
2018-07-09T06:24:58.859Z,8.55
2018-07-09T06:27:27.861Z,8.75
2018-07-09T06:29:56.717Z,7.62
2018-07-09T06:32:26.117Z,10.03
2018-07-09T06:34:55.099Z,8.55
2018-07-09T06:37:24.031Z,9.10
2018-07-09T06:39:53.127Z,9.18
2018-07-09T06:42:22.114Z,9.20
2018-07-09T06:44:51.287Z,9.83
2018-07-09T06:47:20.424Z,8.78
2018-07-09T06:49:49.695Z,9.25
2018-07-09T06:52:18.479Z,9.60
2018-07-09T06:54:47.555Z,8.75
2018-07-09T06:57:16.398Z,7.00
2018-07-09T06:59:45.550Z,7.80
2018-07-09T07:02:15.018Z,6.80
2018-07-09T07:04:44.273Z,6.45
2018-07-09T07:07:13.218Z,5.72
2018-07-09T07:09:42.070Z,4.75
2018-07-09T07:12:11.128Z,5.83
2018-07-09T07:14:40.146Z,5.42
2018-07-09T07:17:08.865Z,4.97
2018-07-09T07:19:37.823Z,4.78
2018-07-09T07:22:07.841Z,4.92
2018-07-09T07:24:36.932Z,4.42
2018-07-09T07:27:05.939Z,4.47
2018-07-09T07:29:34.823Z,3.65
2018-07-09T07:32:03.666Z,3.98
2018-07-09T07:34:32.624Z,5.65
2018-07-09T07:37:02.141Z,6.47
2018-07-09T07:39:31.143Z,7.00
2018-07-09T07:41:59.986Z,6.35
2018-07-09T07:44:28.821Z,5.12
2018-07-09T07:46:58.378Z,5.53
2018-07-09T07:49:27.814Z,4.72
2018-07-09T07:51:57.004Z,4.28
2018-07-09T07:54:26.614Z,4.33
2018-07-09T07:56:55.479Z,5.58
2018-07-09T07:59:24.363Z,4.97
2018-07-09T08:01:53.510Z,5.53
2018-07-09T08:04:22.480Z,4.05
2018-07-09T08:06:51.495Z,4.87
2018-07-09T08:09:21.732Z,3.85
2018-07-09T08:11:50.711Z,4.15
2018-07-09T08:14:21.216Z,4.30
2018-07-09T08:16:50.711Z,4.37
2018-07-09T08:19:19.833Z,5.10
2018-07-09T08:21:49.058Z,4.65
2018-07-09T08:24:17.857Z,4.40
2018-07-09T08:26:48.586Z,4.05
2018-07-09T08:29:17.610Z,3.95
2018-07-09T08:31:48.860Z,3.55
2018-07-09T08:34:17.573Z,3.47
2018-07-09T08:36:46.532Z,2.77
2018-07-09T08:39:15.690Z,3.40
2018-07-09T08:41:44.908Z,4.17
2018-07-09T08:44:14.036Z,5.25
2018-07-09T08:46:43.530Z,3.95
2018-07-09T08:49:13.360Z,3.87
2018-07-09T08:51:43.330Z,3.40
2018-07-09T08:54:12.775Z,3.25
2018-07-09T08:56:41.563Z,3.15
2018-07-09T08:59:10.882Z,4.03
2018-07-09T09:01:40.686Z,3.55
2018-07-09T09:04:09.491Z,3.55
2018-07-09T09:06:39.379Z,3.55
2018-07-09T09:09:08.905Z,3.52
2018-07-09T09:11:37.725Z,3.33
2018-07-09T09:14:07.118Z,4.30
2018-07-09T09:16:37.101Z,3.83
2018-07-09T09:19:06.013Z,4.75
2018-07-09T09:21:35.516Z,6.15
2018-07-09T09:24:04.778Z,5.45
2018-07-09T09:26:33.605Z,4.78
2018-07-09T09:29:02.451Z,4.85
2018-07-09T09:31:32.285Z,3.55
2018-07-09T09:34:01.192Z,4.72
2018-07-09T09:36:30.088Z,4.17
2018-07-09T09:38:59.511Z,4.87
2018-07-09T09:41:28.591Z,5.30
2018-07-09T09:43:57.692Z,4.95
2018-07-09T09:46:26.717Z,4.75
2018-07-09T09:51:37.049Z,6.15
2018-07-09T09:54:06.572Z,6.17
2018-07-09T09:56:35.688Z,6.00
2018-07-09T09:59:04.882Z,5.12
2018-07-09T10:01:34.600Z,5.12
2018-07-09T10:04:03.337Z,4.97
2018-07-09T10:06:32.602Z,4.92
2018-07-09T10:09:02.131Z,5.60
2018-07-09T10:11:30.956Z,4.58
2018-07-09T10:14:00.269Z,4.95
2018-07-09T10:16:29.723Z,4.72
2018-07-09T10:18:58.626Z,4.45
2018-07-09T10:21:27.439Z,4.87
2018-07-09T10:23:57.179Z,4.12
2018-07-09T10:26:26.250Z,4.55
2018-07-09T10:28:55.561Z,5.00
2018-07-09T10:31:24.349Z,3.60
2018-07-09T10:33:53.352Z,4.08
2018-07-09T10:36:22.434Z,4.67
2018-07-09T10:38:51.771Z,4.20
2018-07-09T10:41:20.839Z,3.72
2018-07-09T10:43:50.019Z,3.77
2018-07-09T10:46:19.290Z,3.98
2018-07-09T10:48:48.208Z,4.45
2018-07-09T10:51:17.211Z,4.12
2018-07-09T10:53:46.827Z,4.50
2018-07-09T10:56:15.918Z,3.25
2018-07-09T10:58:44.890Z,2.75
2018-07-09T11:01:14.254Z,4.50
2018-07-09T11:03:43.514Z,4.67
2018-07-09T11:06:12.508Z,4.10
2018-07-09T11:08:41.690Z,4.10
2018-07-09T11:11:10.507Z,6.33
2018-07-09T11:13:39.883Z,4.37
2018-07-09T11:16:09.089Z,4.08
2018-07-09T11:18:38.099Z,4.17
2018-07-09T11:21:07.193Z,4.42
2018-07-09T11:23:36.507Z,4.85
2018-07-09T11:26:05.525Z,5.78
2018-07-09T11:28:34.382Z,3.15
2018-07-09T11:31:03.903Z,4.03
2018-07-09T11:33:32.988Z,3.72
2018-07-09T11:36:02.658Z,4.72
2018-07-09T11:38:32.106Z,4.33
2018-07-09T11:41:01.200Z,3.95
2018-07-09T11:43:30.192Z,4.72
2018-07-09T11:45:59.303Z,5.50
2018-07-09T11:48:28.564Z,4.28
2018-07-09T11:50:57.595Z,5.00
2018-07-09T11:53:27.019Z,5.70
2018-07-09T11:55:56.070Z,4.83
2018-07-09T11:58:25.242Z,4.62
2018-07-09T12:00:54.106Z,5.08
2018-07-09T12:03:22.829Z,5.15
2018-07-09T12:05:51.636Z,5.70
2018-07-09T12:08:20.474Z,6.35
2018-07-09T12:10:49.445Z,5.67
2018-07-09T12:13:18.719Z,5.20
2018-07-09T12:15:47.989Z,4.67
2018-07-09T12:18:17.216Z,6.08
2018-07-09T12:20:46.953Z,6.42
2018-07-09T12:23:16.451Z,6.00
2018-07-09T12:25:45.200Z,5.30
2018-07-09T12:28:14.022Z,6.00
2018-07-09T12:30:43.453Z,5.70
2018-07-09T12:33:12.541Z,5.90
2018-07-09T12:35:41.674Z,5.75
2018-07-09T12:38:10.919Z,5.80
2018-07-09T12:40:39.817Z,4.97
2018-07-09T12:43:09.200Z,5.70
2018-07-09T12:45:38.660Z,6.30
2018-07-09T12:48:07.817Z,5.05
2018-07-09T12:50:36.818Z,4.03
2018-07-09T12:53:06.068Z,3.70
2018-07-09T12:55:34.991Z,7.15
2018-07-09T12:58:04.011Z,5.90
2018-07-09T13:00:33.379Z,5.58
2018-07-09T13:03:02.430Z,4.80
2018-07-09T13:05:31.718Z,3.30
2018-07-09T13:08:00.715Z,3.67
2018-07-09T13:10:30.511Z,4.60
2018-07-09T13:12:59.611Z,4.55
2018-07-09T13:15:29.110Z,4.60
2018-07-09T13:17:58.191Z,4.67
2018-07-09T13:20:27.259Z,4.67
2018-07-09T13:22:56.630Z,4.30
2018-07-09T13:25:26.392Z,4.85
2018-07-09T13:27:55.337Z,4.50
2018-07-09T13:30:24.976Z,4.47
2018-07-09T13:32:54.406Z,4.70
2018-07-09T13:35:23.916Z,6.78
2018-07-09T13:37:52.988Z,5.47
2018-07-09T13:40:22.147Z,3.95
2018-07-09T13:42:51.240Z,5.25
2018-07-09T13:45:20.561Z,4.22
2018-07-09T13:47:49.428Z,3.70
2018-07-09T13:50:18.800Z,4.25
2018-07-09T13:52:48.238Z,5.50
2018-07-09T13:55:17.236Z,6.22
2018-07-09T13:57:46.743Z,4.33
2018-07-09T14:00:15.945Z,4.17
2018-07-09T14:02:45.045Z,5.30
2018-07-09T14:05:13.825Z,5.50
2018-07-09T14:07:42.738Z,4.92
2018-07-09T14:10:11.728Z,6.08
2018-07-09T14:12:40.830Z,4.97
2018-07-09T14:15:10.115Z,5.55
2018-07-09T14:17:39.292Z,6.17
2018-07-09T14:20:36.850Z,6.53
2018-07-09T14:23:06.716Z,4.75
2018-07-09T14:25:35.894Z,5.87
2018-07-09T14:28:06.065Z,4.90
2018-07-09T14:30:35.431Z,6.75
2018-07-09T14:33:04.911Z,5.35
2018-07-09T14:35:34.421Z,5.05
2018-07-09T14:38:03.528Z,5.25
2018-07-09T14:40:32.417Z,6.45
2018-07-09T14:43:02.122Z,6.87
2018-07-09T14:45:31.299Z,5.67
2018-07-09T14:48:00.093Z,6.20
2018-07-09T14:50:29.611Z,5.90
2018-07-09T14:52:58.627Z,8.35
2018-07-09T14:55:27.819Z,6.17
2018-07-09T14:57:57.387Z,6.40
2018-07-09T15:00:26.530Z,6.90
2018-07-09T15:02:56.107Z,6.35
2018-07-09T15:05:26.336Z,7.15
2018-07-09T15:07:55.345Z,7.92
2018-07-09T15:10:24.423Z,7.70
2018-07-09T15:12:53.856Z,8.48
2018-07-09T15:15:23.650Z,8.70
2018-07-09T15:17:52.472Z,8.03
2018-07-09T15:20:21.635Z,9.13
2018-07-09T15:22:51.151Z,8.60
2018-07-09T15:25:20.257Z,9.83
2018-07-09T15:27:49.291Z,8.73
2018-07-09T15:30:17.987Z,8.90
2018-07-09T15:32:46.807Z,9.03
2018-07-09T15:35:16.163Z,8.20
2018-07-09T15:37:45.302Z,8.38
2018-07-09T15:40:15.051Z,9.30
2018-07-09T15:42:44.469Z,8.35
2018-07-09T15:45:13.679Z,7.25
2018-07-09T15:47:42.539Z,7.90
2018-07-09T15:50:11.435Z,8.88
2018-07-09T15:52:40.327Z,9.40
2018-07-09T15:55:09.395Z,9.88
2018-07-09T15:57:38.724Z,8.43
2018-07-09T16:00:07.909Z,7.80
2018-07-09T16:02:37.002Z,8.98
2018-07-09T16:05:06.763Z,8.78
2018-07-09T16:07:35.943Z,9.90
2018-07-09T16:10:04.923Z,9.03
2018-07-09T16:12:34.070Z,9.78
2018-07-09T16:15:03.280Z,8.78
2018-07-09T16:17:32.431Z,7.80
2018-07-09T16:20:01.722Z,10.70
2018-07-09T16:22:31.112Z,9.20
2018-07-09T16:25:00.126Z,8.73
2018-07-09T16:27:29.367Z,8.25
2018-07-09T16:29:58.260Z,13.38
2018-07-09T16:32:27.103Z,9.13
2018-07-09T16:34:56.197Z,8.50
2018-07-09T16:37:25.396Z,9.15
2018-07-09T16:39:54.387Z,8.50
2018-07-09T16:42:24.565Z,8.78
2018-07-09T16:44:54.040Z,9.38
2018-07-09T16:47:23.106Z,9.40
2018-07-09T16:49:52.182Z,8.88
2018-07-09T16:52:21.222Z,10.10
2018-07-09T16:54:50.101Z,9.33
2018-07-09T16:57:19.199Z,8.78
2018-07-09T16:59:48.083Z,8.33
2018-07-09T17:02:17.570Z,8.90
2018-07-09T17:04:46.947Z,9.58
2018-07-09T17:07:15.893Z,9.00
2018-07-09T17:09:44.786Z,8.88
2018-07-09T17:12:14.105Z,11.18
2018-07-09T17:14:43.071Z,9.68
2018-07-09T17:17:12.079Z,10.32
2018-07-09T17:19:41.312Z,10.23
2018-07-09T17:22:10.778Z,10.13
2018-07-09T17:24:39.664Z,9.13
2018-07-09T17:27:08.899Z,10.40
2018-07-09T17:29:37.767Z,9.30
2018-07-09T17:32:08.146Z,10.25
2018-07-09T17:34:37.291Z,10.30
2018-07-09T17:37:06.149Z,10.05
2018-07-09T17:39:34.979Z,10.90
2018-07-09T17:42:04.317Z,10.05
2018-07-09T17:44:33.582Z,9.93
2018-07-09T17:47:02.543Z,10.10
2018-07-09T17:49:31.911Z,10.35
2018-07-09T17:52:00.964Z,9.98
2018-07-09T17:54:29.819Z,9.90
2018-07-09T17:56:59.164Z,10.80
2018-07-09T17:59:28.539Z,9.03
2018-07-09T18:01:57.369Z,8.50
2018-07-09T18:04:26.549Z,8.20
2018-07-09T18:06:55.556Z,8.38
2018-07-09T18:09:28.692Z,8.70
2018-07-09T18:12:03.468Z,7.67
2018-07-09T18:14:36.612Z,8.40
2018-07-09T18:17:05.599Z,8.20
2018-07-09T18:19:34.757Z,7.15
2018-07-09T18:22:04.127Z,6.33
2018-07-09T18:24:33.103Z,6.50
2018-07-09T18:27:01.798Z,5.50
2018-07-09T18:29:31.040Z,5.97
2018-07-09T18:31:59.910Z,5.42
2018-07-09T18:34:28.951Z,5.55
2018-07-09T18:36:58.303Z,5.53
2018-07-09T18:39:27.182Z,4.87
2018-07-09T18:41:56.256Z,5.12
2018-07-09T18:44:25.419Z,5.22
2018-07-09T18:46:54.415Z,5.78
2018-07-09T18:49:23.175Z,6.17
2018-07-09T18:51:52.495Z,6.25
2018-07-09T18:54:21.375Z,7.42
2018-07-09T18:56:50.140Z,7.85
2018-07-09T18:59:19.642Z,7.55
2018-07-09T19:01:48.870Z,7.58
2018-07-09T19:04:18.035Z,7.60
2018-07-09T19:07:06.175Z,7.53
2018-07-09T19:09:35.575Z,7.85
2018-07-09T19:12:05.645Z,8.68
2018-07-09T19:14:40.280Z,9.35
2018-07-09T19:18:20.028Z,12.30
2018-07-09T19:21:28.490Z,13.30
2018-07-09T19:23:56.358Z,14.83
2018-07-09T19:26:23.874Z,15.75
2018-07-09T19:28:51.854Z,17.02
2018-07-09T19:31:19.385Z,14.15
2018-07-09T19:33:47.053Z,12.40
2018-07-09T19:36:14.731Z,11.18
2018-07-09T19:38:42.097Z,12.43
2018-07-09T19:41:10.029Z,14.60
2018-07-09T19:43:38.372Z,12.37
2018-07-09T19:46:05.986Z,11.73
2018-07-09T19:48:33.259Z,14.18
2018-07-09T19:51:01.108Z,17.10
2018-07-09T19:53:28.575Z,16.25
2018-07-09T19:55:56.532Z,17.55
2018-07-09T19:58:24.038Z,21.33
2018-07-09T20:00:51.360Z,18.73
2018-07-09T20:03:18.973Z,19.85
2018-07-09T20:05:46.690Z,13.88
2018-07-09T20:08:14.012Z,10.53
2018-07-09T20:10:46.599Z,11.65
2018-07-09T20:13:19.510Z,13.83
2018-07-09T20:15:52.032Z,9.98
2018-07-09T20:18:19.377Z,10.95
2018-07-09T20:20:47.322Z,11.45
2018-07-09T20:23:14.672Z,10.03
2018-07-09T20:25:42.005Z,10.82
2018-07-09T20:28:09.773Z,11.30
2018-07-09T20:30:37.162Z,11.90
2018-07-09T20:33:04.507Z,12.07
2018-07-09T20:35:32.171Z,13.43
2018-07-09T20:37:59.512Z,13.50
2018-07-09T20:40:27.069Z,14.28
2018-07-09T20:42:54.963Z,15.70
2018-07-09T20:45:22.503Z,13.25
2018-07-09T20:47:49.957Z,13.25
2018-07-09T20:50:17.459Z,13.13
2018-07-09T20:52:44.798Z,15.00
2018-07-09T20:55:12.158Z,12.80
2018-07-09T20:57:40.119Z,12.00
2018-07-09T21:00:07.453Z,13.35
2018-07-09T21:02:34.787Z,14.73
2018-07-09T21:05:02.314Z,15.23
2018-07-09T21:07:29.920Z,16.65
2018-07-09T21:09:57.253Z,17.35
2018-07-09T21:12:24.990Z,16.25
2018-07-09T21:14:52.522Z,17.37
2018-07-09T21:17:19.978Z,17.37
2018-07-09T21:19:47.342Z,15.43
2018-07-09T21:22:14.763Z,13.28
2018-07-09T21:24:42.244Z,14.18
2018-07-09T21:27:09.929Z,15.05
2018-07-09T21:29:37.266Z,11.60
2018-07-09T21:32:04.620Z,11.60
2018-07-09T21:34:32.400Z,11.93
2018-07-09T21:36:59.740Z,11.03
2018-07-09T21:39:27.070Z,9.18
2018-07-09T21:41:54.421Z,9.50
2018-07-09T21:44:21.912Z,10.50
2018-07-09T21:46:49.250Z,10.23
2018-07-09T21:49:16.958Z,11.30
2018-07-09T21:51:44.495Z,12.53
2018-07-09T21:54:11.827Z,13.98
2018-07-09T21:56:39.524Z,15.68
2018-07-09T21:59:06.970Z,14.40
2018-07-09T22:01:34.280Z,14.25
2018-07-09T22:04:02.206Z,13.53
2018-07-09T22:06:29.539Z,13.98
2018-07-09T22:08:56.894Z,14.05
2018-07-09T22:11:24.267Z,13.50
2018-07-09T22:13:51.718Z,12.25
2018-07-09T22:16:19.118Z,14.63
2018-07-09T22:18:46.948Z,13.25
2018-07-09T22:21:14.405Z,12.70
2018-07-09T22:23:41.751Z,14.07
2018-07-09T22:26:09.639Z,12.82
2018-07-09T22:28:37.094Z,14.25
2018-07-09T22:31:06.198Z,15.55
2018-07-09T22:33:35.235Z,13.25
2018-07-09T22:36:04.065Z,13.10
2018-07-09T22:38:33.254Z,14.50
2018-07-09T22:41:02.490Z,12.95
2018-07-09T22:43:42.215Z,12.53
2018-07-09T22:46:11.740Z,12.85
2018-07-09T22:48:40.599Z,12.50
2018-07-09T22:51:09.584Z,13.80
2018-07-09T22:53:38.609Z,13.35
2018-07-09T22:56:10.195Z,10.95
2018-07-09T22:58:41.010Z,9.00
2018-07-09T23:01:10.804Z,10.08
2018-07-09T23:03:39.806Z,9.50
2018-07-09T23:06:09.525Z,9.75
2018-07-09T23:08:38.599Z,8.90
2018-07-09T23:13:24.426Z,7.20
2018-07-09T23:17:01.621Z,7.55
2018-07-09T23:22:24.682Z,8.43
2018-07-09T23:24:52.019Z,8.28
2018-07-09T23:27:19.500Z,8.33
2018-07-09T23:29:47.391Z,8.50
2018-07-09T23:32:14.931Z,7.67
2018-07-09T23:34:42.355Z,7.67
2018-07-09T23:37:10.306Z,6.60
2018-07-09T23:39:37.654Z,5.78
2018-07-09T23:42:05.087Z,6.12
2018-07-09T23:44:32.552Z,4.72
2018-07-09T23:46:59.883Z,3.60
2018-07-09T23:49:27.206Z,3.72
2018-07-09T23:51:54.932Z,4.12
2018-07-09T23:54:22.254Z,4.12
2018-07-09T23:56:58.031Z,5.00
2018-07-09T23:59:37.865Z,3.92
